Darstellungsparameter: Aktuell verwendete Einstellungen:
Skalierung der Graphiken ... ?
xyx+y,   Skalierungsfaktor:      Skalierung: Modus: x, Faktor: 1
Darstellungszeitraum ... ?
Vom - - bis: - -   Zeitraum: 14.09.2019 - 15.09.2019
Min/Max/Avg-Anzeige ... ?
Zeige MMA aktuell
Zeige MMA Monat
Zeige MMA alles
Zeige --A aktuell
Zeige --A Monat
Zeige --A alles
Keine MMA-Anzeige
MMA:
Keine MMA-Graphiken
MMA-Basis: 14.09.2019 - 15.09.2019
Quicknavigation für Darstellung... ?
Tage:      1T, 2T, 3T, 5T -1T -2T -3T -5T +1T +2T +3T +5T
Wochen: 1W, 2W, 3W -1W -2W -3W +1W +2W +3W
Monate: 1M, 3M, 6M -1M -3M -6M +1M +3M +6M
Jahre:    1J, 3J, 5J, 10J -1J -3J -5J -10J +1J +3J +5J +10J
Nutze für die Darstellung ... ?
Originaldaten oder Mittelwerte auf ...
Stundenbasis Tagesbasis Wochenbasis
Monatsbasis Jahresbasis      Datenbasis: Original-Daten
Darstellen als:
Statistik (Auto) Statistik J:M      Darstellung:
Zur Graphik,    zurück zur Übersicht aller Sensoren.
 
Tabellarische Datenbersicht: ?
 
Sensor: Nr:Datum:Temp:Feuchte:Taupunkt:
Aussen-T/F 1 14-09-2019 00:00:00 15.6 C 95 % 14.8 C
2 14-09-2019 00:05:00 15.6 C 94 % 14.64 C
3 14-09-2019 00:10:00 15.5 C 94 % 14.54 C
4 14-09-2019 00:15:00 15.5 C 95 % 14.7 C
5 14-09-2019 00:20:00 15.5 C 95 % 14.7 C
6 14-09-2019 00:25:00 15.5 C 95 % 14.7 C
7 14-09-2019 00:30:00 15.4 C 94 % 14.44 C
8 14-09-2019 00:35:00 15.3 C 94 % 14.34 C
9 14-09-2019 00:40:00 15.2 C 94 % 14.24 C
10 14-09-2019 00:45:00 15.2 C 94 % 14.24 C
11 14-09-2019 00:50:00 15.2 C 95 % 14.4 C
12 14-09-2019 00:55:00 15.2 C 95 % 14.4 C
13 14-09-2019 01:00:00 15.1 C 95 % 14.31 C
14 14-09-2019 01:05:00 15 C 95 % 14.21 C
15 14-09-2019 01:10:00 14.9 C 95 % 14.11 C
16 14-09-2019 01:15:00 14.9 C 95 % 14.11 C
17 14-09-2019 01:20:00 14.8 C 95 % 14.01 C
18 14-09-2019 01:25:00 14.8 C 94 % 13.84 C
19 14-09-2019 01:30:00 14.7 C 94 % 13.74 C
20 14-09-2019 01:35:00 14.5 C 94 % 13.55 C
21 14-09-2019 01:40:00 14.3 C 94 % 13.35 C
22 14-09-2019 01:45:00 14.2 C 94 % 13.25 C
23 14-09-2019 01:50:00 14.2 C 95 % 13.41 C
24 14-09-2019 01:55:00 14.2 C 95 % 13.41 C
25 14-09-2019 02:00:00 14.1 C 94 % 13.15 C
Sensor: Nr:Datum:Temp:Feuchte:Taupunkt:
Aussen-T/F 26 14-09-2019 02:05:00 13.9 C 94 % 12.95 C
27 14-09-2019 02:10:00 13.8 C 94 % 12.85 C
28 14-09-2019 02:15:00 13.7 C 94 % 12.75 C
29 14-09-2019 02:20:00 13.7 C 95 % 12.91 C
30 14-09-2019 02:25:00 13.6 C 95 % 12.81 C
31 14-09-2019 02:30:00 13.5 C 95 % 12.72 C
32 14-09-2019 02:35:00 13.4 C 94 % 12.45 C
33 14-09-2019 02:40:00 13.3 C 94 % 12.36 C
34 14-09-2019 02:45:00 13.1 C 95 % 12.32 C
35 14-09-2019 02:50:00 13.1 C 95 % 12.32 C
36 14-09-2019 02:55:00 13.1 C 95 % 12.32 C
37 14-09-2019 03:00:00 13 C 95 % 12.22 C
38 14-09-2019 03:05:00 12.9 C 95 % 12.12 C
39 14-09-2019 03:10:00 13 C 95 % 12.22 C
40 14-09-2019 03:15:00 12.9 C 95 % 12.12 C
41 14-09-2019 03:20:00 12.9 C 95 % 12.12 C
42 14-09-2019 03:25:00 12.8 C 95 % 12.02 C
43 14-09-2019 03:30:00 12.7 C 95 % 11.92 C
44 14-09-2019 03:35:00 12.6 C 95 % 11.82 C
45 14-09-2019 03:40:00 12.5 C 95 % 11.72 C
46 14-09-2019 03:45:00 12.5 C 95 % 11.72 C
47 14-09-2019 03:50:00 12.4 C 95 % 11.62 C
48 14-09-2019 03:55:00 12.3 C 95 % 11.52 C
49 14-09-2019 04:00:00 12.2 C 95 % 11.42 C
50 14-09-2019 04:05:00 12.2 C 96 % 11.58 C
Sensor: Nr:Datum:Temp:Feuchte:Taupunkt:
Aussen-T/F 51 14-09-2019 04:10:00 12.2 C 95 % 11.42 C
52 14-09-2019 04:15:00 12.1 C 95 % 11.32 C
53 14-09-2019 04:20:00 12.1 C 95 % 11.32 C
54 14-09-2019 04:25:00 12 C 95 % 11.22 C
55 14-09-2019 04:30:00 11.9 C 96 % 11.28 C
56 14-09-2019 04:35:00 12 C 96 % 11.38 C
57 14-09-2019 04:40:00 11.9 C 96 % 11.28 C
58 14-09-2019 04:45:00 11.9 C 96 % 11.28 C
59 14-09-2019 04:50:00 11.8 C 96 % 11.18 C
60 14-09-2019 04:55:00 11.8 C 95 % 11.03 C
61 14-09-2019 05:00:00 11.7 C 95 % 10.93 C
62 14-09-2019 05:05:00 11.6 C 96 % 10.98 C
63 14-09-2019 05:10:00 11.5 C 96 % 10.88 C
64 14-09-2019 05:15:00 11.4 C 95 % 10.63 C
65 14-09-2019 05:20:00 11.4 C 96 % 10.79 C
66 14-09-2019 05:25:00 11.3 C 96 % 10.69 C
67 14-09-2019 05:30:00 11.3 C 96 % 10.69 C
68 14-09-2019 05:35:00 11.2 C 96 % 10.59 C
69 14-09-2019 05:40:00 11.1 C 96 % 10.49 C
70 14-09-2019 05:45:00 11.1 C 96 % 10.49 C
71 14-09-2019 05:50:00 11.1 C 96 % 10.49 C
72 14-09-2019 05:55:00 11.1 C 96 % 10.49 C
73 14-09-2019 06:00:00 11 C 96 % 10.39 C
74 14-09-2019 06:05:00 11 C 96 % 10.39 C
75 14-09-2019 06:10:00 10.9 C 96 % 10.29 C
Sensor: Nr:Datum:Temp:Feuchte:Taupunkt:
Aussen-T/F 76 14-09-2019 06:15:00 10.9 C 96 % 10.29 C
77 14-09-2019 06:20:00 10.9 C 96 % 10.29 C
78 14-09-2019 06:25:00 10.9 C 96 % 10.29 C
79 14-09-2019 06:30:00 10.9 C 96 % 10.29 C
80 14-09-2019 06:35:00 10.8 C 96 % 10.19 C
81 14-09-2019 06:40:00 10.7 C 96 % 10.09 C
82 14-09-2019 06:45:00 10.6 C 96 % 9.99 C
83 14-09-2019 06:50:00 10.4 C 96 % 9.79 C
84 14-09-2019 06:55:00 10.4 C 96 % 9.79 C
85 14-09-2019 07:00:00 10.4 C 96 % 9.79 C
86 14-09-2019 07:05:00 10.4 C 96 % 9.79 C
87 14-09-2019 07:10:00 10.4 C 96 % 9.79 C
88 14-09-2019 07:15:00 10.4 C 96 % 9.79 C
89 14-09-2019 07:20:00 10.4 C 96 % 9.79 C
90 14-09-2019 07:25:00 10.4 C 96 % 9.79 C
91 14-09-2019 07:30:00 10.4 C 96 % 9.79 C
92 14-09-2019 07:35:00 10.4 C 96 % 9.79 C
93 14-09-2019 07:40:00 10.4 C 96 % 9.79 C
94 14-09-2019 07:45:00 10.4 C 96 % 9.79 C
95 14-09-2019 07:50:00 10.4 C 96 % 9.79 C
96 14-09-2019 07:55:00 10.4 C 96 % 9.79 C
97 14-09-2019 08:00:00 10.4 C 96 % 9.79 C
98 14-09-2019 08:05:00 10.4 C 96 % 9.79 C
99 14-09-2019 08:10:00 10.4 C 96 % 9.79 C
100 14-09-2019 08:15:00 10.3 C 96 % 9.69 C
Sensor: Nr:Datum:Temp:Feuchte:Taupunkt:
Aussen-T/F 101 14-09-2019 08:20:00 10.4 C 96 % 9.79 C
102 14-09-2019 08:25:00 10.3 C 96 % 9.69 C
103 14-09-2019 08:30:00 10.4 C 96 % 9.79 C
104 14-09-2019 08:35:00 10.4 C 96 % 9.79 C
105 14-09-2019 08:40:00 10.4 C 96 % 9.79 C
106 14-09-2019 08:45:00 10.4 C 96 % 9.79 C
107 14-09-2019 08:50:00 10.5 C 96 % 9.89 C
108 14-09-2019 08:55:00 10.6 C 96 % 9.99 C
109 14-09-2019 09:00:00 10.6 C 97 % 10.14 C
110 14-09-2019 09:05:00 10.7 C 97 % 10.24 C
111 14-09-2019 09:10:00 10.7 C 97 % 10.24 C
112 14-09-2019 09:15:00 10.8 C 97 % 10.34 C
113 14-09-2019 09:20:00 10.9 C 97 % 10.44 C
114 14-09-2019 09:25:00 10.9 C 97 % 10.44 C
115 14-09-2019 09:30:00 11 C 97 % 10.54 C
116 14-09-2019 09:35:00 11.1 C 97 % 10.64 C
117 14-09-2019 09:40:00 11.2 C 97 % 10.74 C
118 14-09-2019 09:45:00 11.3 C 97 % 10.84 C
119 14-09-2019 09:50:00 11.4 C 97 % 10.94 C
120 14-09-2019 09:55:00 11.5 C 97 % 11.04 C
121 14-09-2019 10:00:00 11.7 C 97 % 11.24 C
122 14-09-2019 10:05:00 11.8 C 97 % 11.34 C
123 14-09-2019 10:10:00 11.9 C 97 % 11.44 C
124 14-09-2019 10:15:00 12 C 97 % 11.54 C
125 14-09-2019 10:20:00 12.1 C 97 % 11.64 C
Sensor: Nr:Datum:Temp:Feuchte:Taupunkt:
Aussen-T/F 126 14-09-2019 10:25:00 12.2 C 97 % 11.74 C
127 14-09-2019 10:30:00 12.3 C 97 % 11.84 C
128 14-09-2019 10:35:00 12.4 C 97 % 11.94 C
129 14-09-2019 10:40:00 12.5 C 97 % 12.04 C
130 14-09-2019 10:45:00 12.6 C 97 % 12.14 C
131 14-09-2019 10:50:00 12.7 C 97 % 12.24 C
132 14-09-2019 10:55:00 12.9 C 97 % 12.44 C
133 14-09-2019 11:00:00 13 C 97 % 12.54 C
134 14-09-2019 11:05:00 13.1 C 97 % 12.63 C
135 14-09-2019 11:10:00 13.3 C 96 % 12.68 C
136 14-09-2019 11:15:00 13.4 C 96 % 12.78 C
137 14-09-2019 11:20:00 13.5 C 96 % 12.87 C
138 14-09-2019 11:25:00 13.6 C 95 % 12.81 C
139 14-09-2019 11:30:00 13.8 C 96 % 13.17 C
140 14-09-2019 11:35:00 13.9 C 95 % 13.11 C
141 14-09-2019 11:40:00 14 C 95 % 13.21 C
142 14-09-2019 11:45:00 14.1 C 94 % 13.15 C
143 14-09-2019 11:50:00 14.2 C 93 % 13.08 C
144 14-09-2019 11:55:00 14.4 C 92 % 13.12 C
145 14-09-2019 12:00:00 14.7 C 92 % 13.41 C
146 14-09-2019 12:05:00 14.9 C 91 % 13.44 C
147 14-09-2019 12:10:00 15.2 C 89 % 13.4 C
148 14-09-2019 12:15:00 15.4 C 88 % 13.42 C
149 14-09-2019 12:20:00 15.7 C 85 % 13.19 C
150 14-09-2019 12:25:00 16 C 83 % 13.12 C
Sensor: Nr:Datum:Temp:Feuchte:Taupunkt:
Aussen-T/F 151 14-09-2019 12:30:00 16.3 C 82 % 13.22 C
152 14-09-2019 12:35:00 16.7 C 81 % 13.43 C
153 14-09-2019 12:40:00 16.8 C 81 % 13.52 C
154 14-09-2019 12:45:00 17.1 C 82 % 14 C
155 14-09-2019 12:50:00 17.3 C 78 % 13.43 C
156 14-09-2019 12:55:00 17.6 C 76 % 13.32 C
157 14-09-2019 13:00:00 17.8 C 75 % 13.31 C
158 14-09-2019 13:05:00 18 C 73 % 13.09 C
159 14-09-2019 13:10:00 18.2 C 76 % 13.9 C
160 14-09-2019 13:15:00 18.3 C 72 % 13.17 C
161 14-09-2019 13:20:00 18.4 C 70 % 12.83 C
162 14-09-2019 13:25:00 18.6 C 72 % 13.46 C
163 14-09-2019 13:30:00 18.7 C 73 % 13.76 C
164 14-09-2019 13:35:00 18.8 C 67 % 12.55 C
165 14-09-2019 13:40:00 19.1 C 68 % 13.06 C
166 14-09-2019 13:45:00 19.2 C 66 % 12.7 C
167 14-09-2019 13:50:00 19.4 C 65 % 12.66 C
168 14-09-2019 13:55:00 19.6 C 64 % 12.61 C
169 14-09-2019 14:00:00 19.7 C 64 % 12.7 C
170 14-09-2019 14:05:00 19.7 C 65 % 12.94 C
171 14-09-2019 14:10:00 19.8 C 65 % 13.03 C
172 14-09-2019 14:15:00 19.9 C 65 % 13.13 C
173 14-09-2019 14:20:00 20.1 C 63 % 12.84 C
174 14-09-2019 14:25:00 20.3 C 64 % 13.27 C
175 14-09-2019 14:30:00 20.6 C 62 % 13.07 C
Sensor: Nr:Datum:Temp:Feuchte:Taupunkt:
Aussen-T/F 176 14-09-2019 14:35:00 20.8 C 61 % 13.01 C
177 14-09-2019 14:40:00 20.8 C 59 % 12.5 C
178 14-09-2019 14:45:00 20.9 C 60 % 12.85 C
179 14-09-2019 14:50:00 21.2 C 60 % 13.13 C
180 14-09-2019 14:55:00 21.4 C 58 % 12.8 C
181 14-09-2019 15:00:00 21.6 C 59 % 13.25 C
182 14-09-2019 15:05:00 21.7 C 57 % 12.81 C
183 14-09-2019 15:10:00 21.7 C 58 % 13.08 C
184 14-09-2019 15:15:00 21.8 C 56 % 12.64 C
185 14-09-2019 15:20:00 21.8 C 56 % 12.64 C
186 14-09-2019 15:25:00 21.8 C 56 % 12.64 C
187 14-09-2019 15:30:00 21.8 C 55 % 12.36 C
188 14-09-2019 15:35:00 21.8 C 55 % 12.36 C
189 14-09-2019 15:40:00 21.7 C 55 % 12.27 C
190 14-09-2019 15:45:00 21.7 C 54 % 11.99 C
191 14-09-2019 15:50:00 21.7 C 54 % 11.99 C
192 14-09-2019 15:55:00 21.8 C 54 % 12.08 C
193 14-09-2019 16:00:00 22 C 52 % 11.7 C
194 14-09-2019 16:05:00 22.1 C 51 % 11.5 C
195 14-09-2019 16:10:00 22.1 C 52 % 11.79 C
196 14-09-2019 16:15:00 22.1 C 51 % 11.5 C
197 14-09-2019 16:20:00 22.1 C 51 % 11.5 C
198 14-09-2019 16:25:00 22.2 C 51 % 11.59 C
199 14-09-2019 16:30:00 22.4 C 51 % 11.77 C
200 14-09-2019 16:35:00 22.6 C 51 % 11.96 C
Sensor: Nr:Datum:Temp:Feuchte:Taupunkt:
Aussen-T/F 201 14-09-2019 16:40:00 22.7 C 52 % 12.34 C
202 14-09-2019 16:45:00 22.8 C 54 % 13.01 C
203 14-09-2019 16:50:00 23 C 56 % 13.75 C
204 14-09-2019 16:55:00 23.2 C 57 % 14.21 C
205 14-09-2019 17:00:00 23.3 C 55 % 13.76 C
206 14-09-2019 17:05:00 23.4 C 53 % 13.28 C
207 14-09-2019 17:10:00 23.8 C 50 % 12.76 C
208 14-09-2019 17:15:00 24.1 C 46 % 11.76 C
209 14-09-2019 17:20:00 24.3 C 49 % 12.91 C
210 14-09-2019 17:25:00 24.4 C 45 % 11.7 C
211 14-09-2019 17:30:00 24.4 C 45 % 11.7 C
212 14-09-2019 17:35:00 24.3 C 44 % 11.27 C
213 14-09-2019 17:40:00 24.3 C 44 % 11.27 C
214 14-09-2019 17:45:00 24.3 C 44 % 11.27 C
215 14-09-2019 17:50:00 24.5 C 44 % 11.45 C
216 14-09-2019 17:55:00 24.6 C 44 % 11.54 C
217 14-09-2019 18:00:00 24.6 C 45 % 11.88 C
218 14-09-2019 18:05:00 24.7 C 53 % 14.48 C
219 14-09-2019 18:10:00 24.8 C 52 % 14.28 C
220 14-09-2019 18:15:00 24.7 C 54 % 14.77 C
221 14-09-2019 18:20:00 24.4 C 54 % 14.49 C
222 14-09-2019 18:25:00 24.1 C 55 % 14.5 C
223 14-09-2019 18:30:00 23.7 C 54 % 13.84 C
224 14-09-2019 18:35:00 23.3 C 52 % 12.9 C
225 14-09-2019 18:40:00 22.9 C 58 % 14.2 C
Sensor: Nr:Datum:Temp:Feuchte:Taupunkt:
Aussen-T/F 226 14-09-2019 18:45:00 22.4 C 58 % 13.73 C
227 14-09-2019 18:50:00 22 C 60 % 13.88 C
228 14-09-2019 18:55:00 21.6 C 61 % 13.76 C
229 14-09-2019 19:00:00 21.2 C 63 % 13.88 C
230 14-09-2019 19:05:00 20.8 C 63 % 13.5 C
231 14-09-2019 19:10:00 20.6 C 64 % 13.55 C
232 14-09-2019 19:15:00 20.3 C 65 % 13.51 C
233 14-09-2019 19:20:00 20 C 64 % 12.99 C
234 14-09-2019 19:25:00 19.6 C 64 % 12.61 C
235 14-09-2019 19:30:00 19.2 C 65 % 12.47 C
236 14-09-2019 19:35:00 18.9 C 65 % 12.18 C
237 14-09-2019 19:40:00 18.6 C 66 % 12.13 C
238 14-09-2019 19:45:00 18.3 C 66 % 11.84 C
239 14-09-2019 19:50:00 18.1 C 67 % 11.88 C
240 14-09-2019 19:55:00 17.9 C 67 % 11.69 C
241 14-09-2019 20:00:00 17.8 C 67 % 11.6 C
242 14-09-2019 20:05:00 17.6 C 69 % 11.85 C
243 14-09-2019 20:10:00 17.3 C 67 % 11.12 C
244 14-09-2019 20:15:00 17.2 C 68 % 11.25 C
245 14-09-2019 20:20:00 17.1 C 69 % 11.37 C
246 14-09-2019 20:25:00 17 C 69 % 11.28 C
247 14-09-2019 20:30:00 16.9 C 70 % 11.4 C
248 14-09-2019 20:35:00 16.7 C 73 % 11.84 C
249 14-09-2019 20:40:00 16.6 C 72 % 11.54 C
250 14-09-2019 20:45:00 16.5 C 72 % 11.44 C
Sensor: Nr:Datum:Temp:Feuchte:Taupunkt:
Aussen-T/F 251 14-09-2019 20:50:00 16.4 C 72 % 11.34 C
252 14-09-2019 20:55:00 16.4 C 73 % 11.55 C
253 14-09-2019 21:00:00 16.4 C 71 % 11.13 C
254 14-09-2019 21:05:00 16.4 C 71 % 11.13 C
255 14-09-2019 21:10:00 16.4 C 70 % 10.92 C
256 14-09-2019 21:15:00 16.4 C 72 % 11.34 C
257 14-09-2019 21:20:00 16.3 C 73 % 11.46 C
258 14-09-2019 21:25:00 16.2 C 72 % 11.15 C
259 14-09-2019 21:30:00 16.1 C 73 % 11.26 C
260 14-09-2019 21:35:00 15.9 C 74 % 11.28 C
261 14-09-2019 21:40:00 15.7 C 76 % 11.48 C
262 14-09-2019 21:45:00 15.5 C 76 % 11.29 C
263 14-09-2019 21:50:00 15.3 C 77 % 11.3 C
264 14-09-2019 21:55:00 15 C 78 % 11.2 C
265 14-09-2019 22:00:00 14.7 C 78 % 10.91 C
266 14-09-2019 22:05:00 14.4 C 79 % 10.81 C
267 14-09-2019 22:10:00 14.3 C 80 % 10.9 C
268 14-09-2019 22:15:00 14.1 C 80 % 10.71 C
269 14-09-2019 22:20:00 14 C 81 % 10.79 C
270 14-09-2019 22:25:00 13.8 C 81 % 10.6 C
271 14-09-2019 22:30:00 13.7 C 81 % 10.5 C
272 14-09-2019 22:35:00 13.6 C 82 % 10.59 C
273 14-09-2019 22:40:00 13.4 C 82 % 10.39 C
274 14-09-2019 22:45:00 13.3 C 83 % 10.48 C
275 14-09-2019 22:50:00 13.2 C 84 % 10.56 C
Sensor: Nr:Datum:Temp:Feuchte:Taupunkt:
Aussen-T/F 276 14-09-2019 22:55:00 13.1 C 84 % 10.46 C
277 14-09-2019 23:00:00 12.9 C 84 % 10.26 C
278 14-09-2019 23:05:00 12.9 C 84 % 10.26 C
279 14-09-2019 23:10:00 12.8 C 85 % 10.34 C
280 14-09-2019 23:15:00 12.7 C 85 % 10.25 C
281 14-09-2019 23:20:00 12.6 C 85 % 10.15 C
282 14-09-2019 23:25:00 12.5 C 86 % 10.22 C
283 14-09-2019 23:30:00 12.4 C 86 % 10.13 C
284 14-09-2019 23:35:00 12.3 C 86 % 10.03 C
285 14-09-2019 23:40:00 12.3 C 86 % 10.03 C
286 14-09-2019 23:45:00 12.2 C 86 % 9.93 C
287 14-09-2019 23:50:00 12.1 C 86 % 9.83 C
288 14-09-2019 23:55:00 12.1 C 86 % 9.83 C
289 15-09-2019 00:00:00 12 C 86 % 9.73 C
290 15-09-2019 00:05:00 11.9 C 87 % 9.81 C
291 15-09-2019 00:10:00 11.8 C 87 % 9.71 C
292 15-09-2019 00:15:00 11.8 C 87 % 9.71 C
293 15-09-2019 00:20:00 11.7 C 87 % 9.61 C
294 15-09-2019 00:25:00 11.6 C 88 % 9.68 C
295 15-09-2019 00:30:00 11.6 C 88 % 9.68 C
296 15-09-2019 00:35:00 11.6 C 88 % 9.68 C
297 15-09-2019 00:40:00 11.6 C 88 % 9.68 C
298 15-09-2019 00:45:00 11.5 C 88 % 9.58 C
299 15-09-2019 00:50:00 11.4 C 88 % 9.49 C
300 15-09-2019 00:55:00 11.3 C 88 % 9.39 C
Sensor: Nr:Datum:Temp:Feuchte:Taupunkt:
Aussen-T/F 301 15-09-2019 01:00:00 11.2 C 89 % 9.46 C
302 15-09-2019 01:05:00 11.2 C 89 % 9.46 C
303 15-09-2019 01:10:00 11.1 C 89 % 9.36 C
304 15-09-2019 01:15:00 10.9 C 89 % 9.16 C
305 15-09-2019 01:20:00 10.9 C 90 % 9.33 C
306 15-09-2019 01:25:00 10.8 C 90 % 9.23 C
307 15-09-2019 01:30:00 10.8 C 90 % 9.23 C
308 15-09-2019 01:35:00 10.7 C 90 % 9.13 C
309 15-09-2019 01:40:00 10.7 C 90 % 9.13 C
310 15-09-2019 01:45:00 10.6 C 90 % 9.03 C
311 15-09-2019 01:50:00 10.5 C 90 % 8.93 C
312 15-09-2019 01:55:00 10.5 C 91 % 9.09 C
313 15-09-2019 02:00:00 10.4 C 91 % 9 C
314 15-09-2019 02:05:00 10.5 C 91 % 9.09 C
315 15-09-2019 02:10:00 10.5 C 91 % 9.09 C
316 15-09-2019 02:15:00 10.4 C 92 % 9.16 C
317 15-09-2019 02:20:00 10.4 C 92 % 9.16 C
318 15-09-2019 02:25:00 10.4 C 92 % 9.16 C
319 15-09-2019 02:30:00 10.4 C 92 % 9.16 C
320 15-09-2019 02:35:00 10.4 C 92 % 9.16 C
321 15-09-2019 02:40:00 10.3 C 92 % 9.06 C
322 15-09-2019 02:45:00 10.3 C 92 % 9.06 C
323 15-09-2019 02:50:00 10.3 C 92 % 9.06 C
324 15-09-2019 02:55:00 10.2 C 92 % 8.96 C
325 15-09-2019 03:00:00 10.2 C 92 % 8.96 C
Sensor: Nr:Datum:Temp:Feuchte:Taupunkt:
Aussen-T/F 326 15-09-2019 03:05:00 10.3 C 93 % 9.22 C
327 15-09-2019 03:10:00 10.3 C 93 % 9.22 C
328 15-09-2019 03:15:00 10.3 C 93 % 9.22 C
329 15-09-2019 03:20:00 10.3 C 92 % 9.06 C
330 15-09-2019 03:25:00 10.1 C 92 % 8.86 C
331 15-09-2019 03:30:00 10.1 C 92 % 8.86 C
332 15-09-2019 03:35:00 10 C 92 % 8.76 C
333 15-09-2019 03:40:00 10.1 C 93 % 9.02 C
334 15-09-2019 03:45:00 10.2 C 93 % 9.12 C
335 15-09-2019 03:50:00 10.1 C 93 % 9.02 C
336 15-09-2019 03:55:00 10 C 93 % 8.92 C
337 15-09-2019 04:00:00 9.9 C 93 % 8.82 C
338 15-09-2019 04:05:00 9.9 C 93 % 8.82 C
339 15-09-2019 04:10:00 9.9 C 93 % 8.82 C
340 15-09-2019 04:15:00 9.9 C 93 % 8.82 C
341 15-09-2019 04:20:00 9.8 C 93 % 8.72 C
342 15-09-2019 04:25:00 9.8 C 93 % 8.72 C
343 15-09-2019 04:30:00 9.7 C 93 % 8.62 C
344 15-09-2019 04:35:00 9.7 C 93 % 8.62 C
345 15-09-2019 04:40:00 9.7 C 93 % 8.62 C
346 15-09-2019 04:45:00 9.6 C 93 % 8.53 C
347 15-09-2019 04:50:00 9.6 C 94 % 8.68 C
348 15-09-2019 04:55:00 9.6 C 93 % 8.53 C
349 15-09-2019 05:00:00 9.5 C 94 % 8.58 C
350 15-09-2019 05:05:00 9.5 C 94 % 8.58 C
Sensor: Nr:Datum:Temp:Feuchte:Taupunkt:
Aussen-T/F 351 15-09-2019 05:10:00 9.6 C 94 % 8.68 C
352 15-09-2019 05:15:00 9.5 C 94 % 8.58 C
353 15-09-2019 05:20:00 9.4 C 94 % 8.48 C
354 15-09-2019 05:25:00 9.3 C 94 % 8.39 C
355 15-09-2019 05:30:00 9.3 C 94 % 8.39 C
356 15-09-2019 05:35:00 9.3 C 94 % 8.39 C
357 15-09-2019 05:40:00 9.2 C 94 % 8.29 C
358 15-09-2019 05:45:00 9.1 C 94 % 8.19 C
359 15-09-2019 05:50:00 9.1 C 94 % 8.19 C
360 15-09-2019 05:55:00 9 C 94 % 8.09 C
361 15-09-2019 06:00:00 9 C 94 % 8.09 C
362 15-09-2019 06:05:00 9 C 94 % 8.09 C
363 15-09-2019 06:10:00 8.9 C 94 % 7.99 C
364 15-09-2019 06:15:00 8.8 C 94 % 7.89 C
365 15-09-2019 06:20:00 8.8 C 94 % 7.89 C
366 15-09-2019 06:25:00 8.8 C 94 % 7.89 C
367 15-09-2019 06:30:00 8.7 C 94 % 7.79 C
368 15-09-2019 06:35:00 8.7 C 94 % 7.79 C
369 15-09-2019 06:40:00 8.7 C 94 % 7.79 C
370 15-09-2019 06:45:00 8.6 C 94 % 7.69 C
371 15-09-2019 06:50:00 8.6 C 94 % 7.69 C
372 15-09-2019 06:55:00 8.6 C 95 % 7.85 C
373 15-09-2019 07:00:00 8.6 C 95 % 7.85 C
374 15-09-2019 07:05:00 8.6 C 95 % 7.85 C
375 15-09-2019 07:10:00 8.7 C 95 % 7.94 C
Sensor: Nr:Datum:Temp:Feuchte:Taupunkt:
Aussen-T/F 376 15-09-2019 07:15:00 8.8 C 95 % 8.04 C
377 15-09-2019 07:20:00 8.9 C 95 % 8.14 C
378 15-09-2019 07:25:00 8.9 C 95 % 8.14 C
379 15-09-2019 07:30:00 8.8 C 95 % 8.04 C
380 15-09-2019 07:35:00 8.8 C 95 % 8.04 C
381 15-09-2019 07:40:00 8.8 C 95 % 8.04 C
382 15-09-2019 07:45:00 8.8 C 95 % 8.04 C
383 15-09-2019 07:50:00 8.8 C 95 % 8.04 C
384 15-09-2019 07:55:00 8.8 C 95 % 8.04 C
385 15-09-2019 08:00:00 8.9 C 95 % 8.14 C
386 15-09-2019 08:05:00 9.1 C 96 % 8.5 C
387 15-09-2019 08:10:00 9.1 C 96 % 8.5 C
388 15-09-2019 08:15:00 9.2 C 96 % 8.6 C
389 15-09-2019 08:20:00 9.2 C 96 % 8.6 C
390 15-09-2019 08:25:00 9.2 C 96 % 8.6 C
391 15-09-2019 08:30:00 9.2 C 96 % 8.6 C
392 15-09-2019 08:35:00 9.3 C 96 % 8.7 C
393 15-09-2019 08:40:00 9.4 C 96 % 8.8 C
394 15-09-2019 08:45:00 9.6 C 96 % 8.99 C
395 15-09-2019 08:50:00 9.6 C 96 % 8.99 C
396 15-09-2019 08:55:00 9.7 C 96 % 9.09 C
397 15-09-2019 09:00:00 9.7 C 96 % 9.09 C
398 15-09-2019 09:05:00 9.8 C 96 % 9.19 C
399 15-09-2019 09:10:00 9.8 C 96 % 9.19 C
400 15-09-2019 09:15:00 9.8 C 96 % 9.19 C
Sensor: Nr:Datum:Temp:Feuchte:Taupunkt:
Aussen-T/F 401 15-09-2019 09:20:00 9.9 C 96 % 9.29 C
402 15-09-2019 09:25:00 9.9 C 96 % 9.29 C
403 15-09-2019 09:30:00 10 C 96 % 9.39 C
404 15-09-2019 09:35:00 10.1 C 96 % 9.49 C
405 15-09-2019 09:40:00 10.2 C 96 % 9.59 C
406 15-09-2019 09:45:00 10.3 C 96 % 9.69 C
407 15-09-2019 09:50:00 10.4 C 96 % 9.79 C
408 15-09-2019 09:55:00 10.5 C 96 % 9.89 C
409 15-09-2019 10:00:00 10.6 C 96 % 9.99 C
410 15-09-2019 10:05:00 10.7 C 96 % 10.09 C
411 15-09-2019 10:10:00 10.8 C 96 % 10.19 C
412 15-09-2019 10:15:00 10.9 C 96 % 10.29 C
413 15-09-2019 10:20:00 11.1 C 96 % 10.49 C
414 15-09-2019 10:25:00 11.2 C 96 % 10.59 C
415 15-09-2019 10:30:00 11.3 C 96 % 10.69 C
416 15-09-2019 10:35:00 11.5 C 96 % 10.88 C
417 15-09-2019 10:40:00 11.7 C 96 % 11.08 C
418 15-09-2019 10:45:00 11.9 C 96 % 11.28 C
419 15-09-2019 10:50:00 12.2 C 96 % 11.58 C
420 15-09-2019 10:55:00 12.4 C 96 % 11.78 C
421 15-09-2019 11:00:00 12.6 C 96 % 11.98 C
422 15-09-2019 11:05:00 12.8 C 96 % 12.18 C
423 15-09-2019 11:10:00 13 C 96 % 12.38 C
424 15-09-2019 11:15:00 13.2 C 95 % 12.42 C
425 15-09-2019 11:20:00 13.4 C 95 % 12.62 C
Sensor: Nr:Datum:Temp:Feuchte:Taupunkt:
Aussen-T/F 426 15-09-2019 11:25:00 13.6 C 95 % 12.81 C
427 15-09-2019 11:30:00 13.8 C 95 % 13.01 C
428 15-09-2019 11:35:00 14 C 95 % 13.21 C
429 15-09-2019 11:40:00 14.2 C 94 % 13.25 C
430 15-09-2019 11:45:00 14.4 C 94 % 13.45 C
431 15-09-2019 11:50:00 14.7 C 93 % 13.58 C
432 15-09-2019 11:55:00 14.9 C 93 % 13.78 C
433 15-09-2019 12:00:00 15.2 C 93 % 14.08 C
434 15-09-2019 12:05:00 15.4 C 92 % 14.11 C
435 15-09-2019 12:10:00 15.8 C 90 % 14.16 C
436 15-09-2019 12:15:00 16.2 C 89 % 14.39 C
437 15-09-2019 12:20:00 16.6 C 87 % 14.43 C
438 15-09-2019 12:25:00 16.8 C 86 % 14.45 C
439 15-09-2019 12:30:00 17.2 C 85 % 14.66 C
440 15-09-2019 12:35:00 17.5 C 84 % 14.77 C
441 15-09-2019 12:40:00 17.7 C 81 % 14.4 C
442 15-09-2019 12:45:00 18.1 C 81 % 14.79 C
443 15-09-2019 12:50:00 18.4 C 78 % 14.5 C
444 15-09-2019 12:55:00 18.7 C 78 % 14.79 C
445 15-09-2019 13:00:00 19 C 75 % 14.47 C
446 15-09-2019 13:05:00 19.3 C 75 % 14.76 C
447 15-09-2019 13:10:00 19.6 C 72 % 14.42 C
448 15-09-2019 13:15:00 19.9 C 73 % 14.92 C
449 15-09-2019 13:20:00 20.1 C 72 % 14.9 C
450 15-09-2019 13:25:00 20.4 C 69 % 14.52 C
Sensor: Nr:Datum:Temp:Feuchte:Taupunkt:
Aussen-T/F 451 15-09-2019 13:30:00 20.6 C 68 % 14.49 C
452 15-09-2019 13:35:00 20.9 C 68 % 14.77 C
453 15-09-2019 13:40:00 21.1 C 67 % 14.74 C
454 15-09-2019 13:45:00 21.3 C 67 % 14.93 C
455 15-09-2019 13:50:00 21.6 C 66 % 14.98 C
456 15-09-2019 13:55:00 21.7 C 66 % 15.07 C
457 15-09-2019 14:00:00 21.8 C 65 % 14.93 C
458 15-09-2019 14:05:00 22.1 C 64 % 14.97 C
459 15-09-2019 14:10:00 22.3 C 63 % 14.92 C
460 15-09-2019 14:15:00 22.5 C 62 % 14.86 C
461 15-09-2019 14:20:00 22.7 C 61 % 14.79 C
462 15-09-2019 14:25:00 22.8 C 61 % 14.89 C
463 15-09-2019 14:30:00 23 C 60 % 14.82 C
464 15-09-2019 14:35:00 23.1 C 59 % 14.65 C
465 15-09-2019 14:40:00 23.1 C 61 % 15.17 C
466 15-09-2019 14:45:00 23.2 C 59 % 14.75 C
467 15-09-2019 14:50:00 23.3 C 59 % 14.84 C
468 15-09-2019 14:55:00 23.6 C 59 % 15.12 C
469 15-09-2019 15:00:00 23.7 C 58 % 14.95 C
470 15-09-2019 15:05:00 23.8 C 58 % 15.04 C
471 15-09-2019 15:10:00 23.8 C 58 % 15.04 C
472 15-09-2019 15:15:00 23.9 C 57 % 14.87 C
473 15-09-2019 15:20:00 24.1 C 57 % 15.05 C
474 15-09-2019 15:25:00 24.1 C 56 % 14.78 C
475 15-09-2019 15:30:00 24.2 C 56 % 14.87 C
Sensor: Nr:Datum:Temp:Feuchte:Taupunkt:
Aussen-T/F 476 15-09-2019 15:35:00 24.2 C 56 % 14.87 C
477 15-09-2019 15:40:00 24.2 C 57 % 15.14 C
478 15-09-2019 15:45:00 24.2 C 56 % 14.87 C
479 15-09-2019 15:50:00 24.2 C 55 % 14.59 C
480 15-09-2019 15:55:00 24.2 C 55 % 14.59 C
481 15-09-2019 16:00:00 24.3 C 54 % 14.4 C
482 15-09-2019 16:05:00 24.3 C 54 % 14.4 C
483 15-09-2019 16:10:00 24.4 C 54 % 14.49 C
484 15-09-2019 16:15:00 24.4 C 53 % 14.2 C
485 15-09-2019 16:20:00 24.6 C 54 % 14.68 C
486 15-09-2019 16:25:00 24.6 C 53 % 14.39 C
487 15-09-2019 16:30:00 24.7 C 53 % 14.48 C
488 15-09-2019 16:35:00 24.8 C 53 % 14.57 C
489 15-09-2019 16:40:00 24.8 C 53 % 14.57 C
490 15-09-2019 16:45:00 24.9 C 52 % 14.37 C
491 15-09-2019 16:50:00 25 C 51 % 14.16 C
492 15-09-2019 16:55:00 25.1 C 50 % 13.95 C
493 15-09-2019 17:00:00 25.2 C 50 % 14.04 C
494 15-09-2019 17:05:00 25.3 C 51 % 14.44 C
495 15-09-2019 17:10:00 25.6 C 51 % 14.71 C
496 15-09-2019 17:15:00 25.8 C 50 % 14.59 C
497 15-09-2019 17:20:00 25.8 C 47 % 13.64 C
498 15-09-2019 17:25:00 25.8 C 48 % 13.96 C
499 15-09-2019 17:30:00 25.9 C 48 % 14.05 C
500 15-09-2019 17:35:00 26 C 47 % 13.82 C
Sensor: Nr:Datum:Temp:Feuchte:Taupunkt:
Aussen-T/F 501 15-09-2019 17:40:00 26.1 C 46 % 13.58 C
502 15-09-2019 17:45:00 26.2 C 45 % 13.33 C
503 15-09-2019 17:50:00 26.2 C 45 % 13.33 C
504 15-09-2019 17:55:00 26.2 C 45 % 13.33 C
505 15-09-2019 18:00:00 26.4 C 44 % 13.17 C
506 15-09-2019 18:05:00 26.6 C 45 % 13.69 C
507 15-09-2019 18:10:00 26.7 C 45 % 13.78 C
508 15-09-2019 18:15:00 26.8 C 46 % 14.21 C
509 15-09-2019 18:20:00 26.8 C 49 % 15.19 C
510 15-09-2019 18:25:00 26.8 C 42 % 12.82 C
511 15-09-2019 18:30:00 26.8 C 42 % 12.82 C
512 15-09-2019 18:35:00 26.7 C 48 % 14.78 C
513 15-09-2019 18:40:00 26.6 C 49 % 15.01 C
514 15-09-2019 18:45:00 26.1 C 47 % 13.91 C
515 15-09-2019 18:50:00 25.6 C 46 % 13.12 C
516 15-09-2019 18:55:00 25.3 C 49 % 13.82 C
517 15-09-2019 19:00:00 25.1 C 51 % 14.25 C
518 15-09-2019 19:05:00 24.7 C 51 % 13.89 C
519 15-09-2019 19:10:00 24.2 C 53 % 14.02 C
520 15-09-2019 19:15:00 23.5 C 53 % 13.37 C
521 15-09-2019 19:20:00 22.8 C 55 % 13.29 C
522 15-09-2019 19:25:00 22.1 C 57 % 13.19 C
523 15-09-2019 19:30:00 21.4 C 61 % 13.57 C
524 15-09-2019 19:35:00 20.8 C 61 % 13.01 C
525 15-09-2019 19:40:00 20.3 C 62 % 12.79 C
Sensor: Nr:Datum:Temp:Feuchte:Taupunkt:
Aussen-T/F 526 15-09-2019 19:45:00 19.8 C 61 % 12.07 C
527 15-09-2019 19:50:00 19.6 C 61 % 11.88 C
528 15-09-2019 19:55:00 19.3 C 62 % 11.84 C
529 15-09-2019 20:00:00 19.2 C 61 % 11.5 C
530 15-09-2019 20:05:00 19 C 62 % 11.56 C
531 15-09-2019 20:10:00 18.8 C 61 % 11.13 C
532 15-09-2019 20:15:00 18.6 C 62 % 11.18 C
533 15-09-2019 20:20:00 18.4 C 63 % 11.23 C
534 15-09-2019 20:25:00 18.3 C 63 % 11.14 C
535 15-09-2019 20:30:00 18.1 C 63 % 10.95 C
536 15-09-2019 20:35:00 17.9 C 64 % 11 C
537 15-09-2019 20:40:00 17.8 C 65 % 11.14 C
538 15-09-2019 20:45:00 17.7 C 66 % 11.27 C
539 15-09-2019 20:50:00 17.5 C 65 % 10.85 C
540 15-09-2019 20:55:00 17.4 C 65 % 10.76 C
541 15-09-2019 21:00:00 17.3 C 62 % 9.96 C
542 15-09-2019 21:05:00 17.4 C 64 % 10.53 C
543 15-09-2019 21:10:00 17.4 C 62 % 10.05 C
544 15-09-2019 21:15:00 17.3 C 64 % 10.43 C
545 15-09-2019 21:20:00 17.2 C 66 % 10.8 C
546 15-09-2019 21:25:00 17.1 C 67 % 10.93 C
547 15-09-2019 21:30:00 16.8 C 68 % 10.87 C
548 15-09-2019 21:35:00 16.6 C 69 % 10.89 C
549 15-09-2019 21:40:00 16.3 C 69 % 10.61 C
550 15-09-2019 21:45:00 16.1 C 70 % 10.63 C
Sensor: Nr:Datum:Temp:Feuchte:Taupunkt:
Aussen-T/F 551 15-09-2019 21:50:00 15.9 C 71 % 10.65 C
552 15-09-2019 21:55:00 15.8 C 72 % 10.77 C
553 15-09-2019 22:00:00 15.6 C 73 % 10.78 C
554 15-09-2019 22:05:00 15.4 C 74 % 10.79 C
555 15-09-2019 22:10:00 15.1 C 75 % 10.71 C
556 15-09-2019 22:15:00 14.8 C 75 % 10.42 C
557 15-09-2019 22:20:00 14.6 C 75 % 10.22 C
558 15-09-2019 22:25:00 14.4 C 77 % 10.42 C
559 15-09-2019 22:30:00 14.3 C 77 % 10.33 C
560 15-09-2019 22:35:00 14.2 C 77 % 10.23 C
561 15-09-2019 22:40:00 14.1 C 78 % 10.33 C
562 15-09-2019 22:45:00 13.9 C 78 % 10.13 C
563 15-09-2019 22:50:00 13.7 C 78 % 9.94 C
564 15-09-2019 22:55:00 13.6 C 79 % 10.03 C
565 15-09-2019 23:00:00 13.4 C 80 % 10.02 C
566 15-09-2019 23:05:00 13.3 C 80 % 9.93 C
567 15-09-2019 23:10:00 13.2 C 80 % 9.83 C
568 15-09-2019 23:15:00 13.1 C 81 % 9.92 C
569 15-09-2019 23:20:00 13.1 C 81 % 9.92 C
570 15-09-2019 23:25:00 13.1 C 81 % 9.92 C
571 15-09-2019 23:30:00 12.9 C 81 % 9.72 C
572 15-09-2019 23:35:00 12.9 C 82 % 9.9 C
573 15-09-2019 23:40:00 12.8 C 82 % 9.81 C
574 15-09-2019 23:45:00 12.8 C 82 % 9.81 C
575 15-09-2019 23:50:00 12.7 C 82 % 9.71 C
Sensor: Nr:Datum:Temp:Feuchte:Taupunkt:
Aussen-T/F 576 15-09-2019 23:55:00 12.6 C 83 % 9.79 C

Legende:
   Min
   Max


Maximal/Minimal-Werte vom 14.09.2019 - 15.09.2019

Sensor Min Max Avg
Temp
(Aussen-T/F)
8.6 °C
15-09-2019  06:45:00
26.8 °C
15-09-2019  18:15:00
15.49 °C
Feuchte
(Aussen-T/F)
42 %
15-09-2019  18:25:00
97 %
14-09-2019  09:00:00
79.86 %
Taupunkt
(Aussen-T/F)
7.69 C
15-09-2019  06:45:00
15.19 C
15-09-2019  18:20:00
11.52 C

Die Daten stammen von einer Davis Vantage Pro 2 Wetter-Station und werden unter Linux mit der Software wview2wettercgi und aufbereitet. Alle Angaben erfolgen ohne Gewähr für ihre Vollständigkeit oder Richtigkeit.
Kontakt: Rainer Krienke krienke@uni-koblenz.de . Meine Webseiten an der Uni Koblenz oder privat.
Version: $Revision: 0.78 $